This is the latest recevied weather packets stored in our database for station/object WAYLND-WX. If no packets are shown the sender has not sent any weather packets the latest 10 day(s).
| Time | Temp. | Humidity | Pressure | Rain* | Wind** | Luminosity | Snow |
|---|---|---|---|---|---|---|---|
| 1777514466 | 6.67° C | 89% | 987.5 hPa | 0 mm | - | - | - |
| 1777513539 | 6.67° C | 90% | 986.5 hPa | 0 mm | - | - | - |
| 1777512653 | 6.67° C | 90% | 986.5 hPa | 0 mm | - | - | - |
| 1777511740 | 6.67° C | 90% | 986.5 hPa | 0.25 mm | - | - | - |
| 1777510864 | 6.67° C | 90% | 986.5 hPa | 0.25 mm | - | - | - |
| 1777509940 | 6.67° C | 88% | 986.3 hPa | 0 mm | - | - | - |
| 1777509054 | 6.67° C | 91% | 986.6 hPa | 0 mm | - | - | - |
| 1777508140 | 6.67° C | 91% | 986.6 hPa | 0 mm | - | - | - |
| 1777507268 | 7.22° C | 91% | 986.6 hPa | 0 mm | - | - | - |
| 1777506341 | 7.22° C | 88% | 985.9 hPa | 0 mm | - | - | - |
| 1777505455 | 7.78° C | 88% | 986 hPa | 0 mm | - | - | - |
| 1777504541 | 8.33° C | 88% | 986 hPa | 0 mm | - | - | - |
| 1777503664 | 7.78° C | 88% | 986 hPa | 0 mm | - | - | - |
| 1777502741 | 8.33° C | 87% | 985.7 hPa | 0 mm | - | - | - |
| 1777501854 | 7.78° C | 89% | 986.3 hPa | 0 mm | - | - | - |
| 1777500941 | 7.78° C | 89% | 986.3 hPa | 0 mm | - | - | - |
| 1777500068 | 7.78° C | 89% | 986.3 hPa | 0 mm | - | - | - |
| 1777499141 | 7.78° C | 90% | 985.6 hPa | 0.25 mm | - | - | - |
| 1777498258 | 7.78° C | 89% | 985.2 hPa | 0.25 mm | - | - | - |
| 1777497341 | 7.78° C | 89% | 985.2 hPa | 0 mm | - | - | - |
| 1777496466 | 7.78° C | 89% | 985.2 hPa | 0 mm | - | - | - |
| 1777495542 | 8.33° C | 91% | 986.2 hPa | 1.02 mm | - | - | - |
| 1777494657 | 7.78° C | 89% | 985 hPa | 0.76 mm | - | - | - |
| 1777493741 | 8.33° C | 89% | 985 hPa | 0.76 mm | - | - | - |
| 1777492865 | 8.33° C | 91% | 985 hPa | 0.76 mm | - | - | - |
* Rain latest hour (hover to see other rain measurements)
** Current wind speed in m/s (hover to see current wind gust speed)